sensor_id;sensor_type;location;lat;lon;timestamp;pressure;altitude;pressure_sealevel;temperature;humidity
68141;BME280;54941;52.220;104.306;2022-10-16T00:01:07;98149.22;;;-3.87;100.00
68141;BME280;54941;52.220;104.306;2022-10-16T00:03:34;98154.56;;;-3.76;100.00
68141;BME280;54941;52.220;104.306;2022-10-16T00:06:01;98156.72;;;-3.69;100.00
68141;BME280;54941;52.220;104.306;2022-10-16T00:08:28;98157.41;;;-3.65;100.00
68141;BME280;54941;52.220;104.306;2022-10-16T00:10:59;98156.22;;;-3.58;100.00
68141;BME280;54941;52.220;104.306;2022-10-16T00:13:26;98151.78;;;-3.53;100.00
68141;BME280;54941;52.220;104.306;2022-10-16T00:15:55;98154.75;;;-3.45;100.00
68141;BME280;54941;52.220;104.306;2022-10-16T00:18:23;98161.13;;;-3.38;100.00
68141;BME280;54941;52.220;104.306;2022-10-16T00:20:50;98165.84;;;-3.32;100.00
68141;BME280;54941;52.220;104.306;2022-10-16T00:23:35;98164.25;;;-3.33;100.00
68141;BME280;54941;52.220;104.306;2022-10-16T00:26:04;98167.56;;;-3.15;99.25
68141;BME280;54941;52.220;104.306;2022-10-16T00:28:31;98161.66;;;-2.99;98.89
68141;BME280;54941;52.220;104.306;2022-10-16T00:30:58;98170.25;;;-2.85;98.72
68141;BME280;54941;52.220;104.306;2022-10-16T00:33:26;98167.53;;;-2.65;98.25
68141;BME280;54941;52.220;104.306;2022-10-16T00:35:52;98165.59;;;-2.60;97.31
68141;BME280;54941;52.220;104.306;2022-10-16T00:38:18;98165.09;;;-2.51;95.65
68141;BME280;54941;52.220;104.306;2022-10-16T00:40:45;98167.75;;;-2.37;95.28
68141;BME280;54941;52.220;104.306;2022-10-16T00:43:33;98164.13;;;-2.17;93.67
68141;BME280;54941;52.220;104.306;2022-10-16T00:46:01;98169.53;;;-2.08;93.63
68141;BME280;54941;52.220;104.306;2022-10-16T00:48:30;98162.50;;;-2.03;92.91
68141;BME280;54941;52.220;104.306;2022-10-16T00:50:57;98161.03;;;-2.07;93.20
68141;BME280;54941;52.220;104.306;2022-10-16T00:53:25;98161.44;;;-1.83;92.54
68141;BME280;54941;52.220;104.306;2022-10-16T00:55:51;98162.13;;;-1.65;92.05
68141;BME280;54941;52.220;104.306;2022-10-16T00:58:18;98161.88;;;-1.31;90.74
68141;BME280;54941;52.220;104.306;2022-10-16T01:00:45;98167.53;;;-1.41;90.43
68141;BME280;54941;52.220;104.306;2022-10-16T01:03:27;98161.66;;;-1.42;90.31
68141;BME280;54941;52.220;104.306;2022-10-16T01:05:58;98159.50;;;-0.90;89.05
68141;BME280;54941;52.220;104.306;2022-10-16T01:08:35;98161.19;;;-0.34;86.42
68141;BME280;54941;52.220;104.306;2022-10-16T01:11:09;98164.56;;;-0.07;83.45
68141;BME280;54941;52.220;104.306;2022-10-16T01:13:41;98157.44;;;0.39;82.85
68141;BME280;54941;52.220;104.306;2022-10-16T01:16:12;98168.06;;;0.84;79.90
68141;BME280;54941;52.220;104.306;2022-10-16T01:18:43;98152.16;;;1.69;77.52
68141;BME280;54941;52.220;104.306;2022-10-16T01:21:15;98165.50;;;2.43;74.52
68141;BME280;54941;52.220;104.306;2022-10-16T01:23:49;98168.81;;;3.03;71.08
68141;BME280;54941;52.220;104.306;2022-10-16T01:26:28;98160.75;;;2.39;72.42
68141;BME280;54941;52.220;104.306;2022-10-16T01:29:03;98163.56;;;2.47;72.55
68141;BME280;54941;52.220;104.306;2022-10-16T01:31:34;98153.72;;;3.11;70.92
68141;BME280;54941;52.220;104.306;2022-10-16T01:34:05;98158.03;;;3.10;69.83
68141;BME280;54941;52.220;104.306;2022-10-16T01:36:37;98159.31;;;3.60;67.30
68141;BME280;54941;52.220;104.306;2022-10-16T01:39:06;98155.34;;;4.21;65.94
68141;BME280;54941;52.220;104.306;2022-10-16T01:41:37;98161.34;;;4.63;63.53
68141;BME280;54941;52.220;104.306;2022-10-16T01:44:08;98155.69;;;4.60;62.99
68141;BME280;54941;52.220;104.306;2022-10-16T01:46:39;98158.31;;;5.41;61.04
68141;BME280;54941;52.220;104.306;2022-10-16T01:49:06;98158.44;;;5.39;60.97
68141;BME280;54941;52.220;104.306;2022-10-16T01:51:35;98155.56;;;6.03;58.10
68141;BME280;54941;52.220;104.306;2022-10-16T01:54:06;98158.00;;;4.83;60.13
68141;BME280;54941;52.220;104.306;2022-10-16T01:56:35;98166.06;;;5.30;59.71
68141;BME280;54941;52.220;104.306;2022-10-16T01:59:06;98163.13;;;6.05;57.34
68141;BME280;54941;52.220;104.306;2022-10-16T02:01:36;98164.69;;;5.47;58.09
68141;BME280;54941;52.220;104.306;2022-10-16T02:04:10;98168.53;;;6.69;55.45
68141;BME280;54941;52.220;104.306;2022-10-16T02:06:38;98159.75;;;6.04;57.08
68141;BME280;54941;52.220;104.306;2022-10-16T02:09:04;98164.13;;;7.27;52.80
68141;BME280;54941;52.220;104.306;2022-10-16T02:11:31;98166.53;;;6.72;54.06
68141;BME280;54941;52.220;104.306;2022-10-16T02:14:01;98156.88;;;5.88;55.95
68141;BME280;54941;52.220;104.306;2022-10-16T02:16:35;98157.09;;;6.44;55.41
68141;BME280;54941;52.220;104.306;2022-10-16T02:19:02;98154.13;;;6.39;54.33
68141;BME280;54941;52.220;104.306;2022-10-16T02:21:34;98153.31;;;6.48;53.71
68141;BME280;54941;52.220;104.306;2022-10-16T02:24:11;98157.25;;;7.18;52.79
68141;BME280;54941;52.220;104.306;2022-10-16T02:26:43;98148.44;;;6.26;55.10
68141;BME280;54941;52.220;104.306;2022-10-16T02:29:15;98141.69;;;8.11;50.54
68141;BME280;54941;52.220;104.306;2022-10-16T02:31:52;98148.81;;;7.45;50.63
68141;BME280;54941;52.220;104.306;2022-10-16T02:34:21;98144.91;;;6.94;52.38
68141;BME280;54941;52.220;104.306;2022-10-16T02:36:50;98145.84;;;7.40;51.77
68141;BME280;54941;52.220;104.306;2022-10-16T02:39:18;98143.03;;;7.43;52.10
68141;BME280;54941;52.220;104.306;2022-10-16T02:41:45;98138.31;;;7.65;51.88
68141;BME280;54941;52.220;104.306;2022-10-16T02:44:14;98133.81;;;8.40;50.48
68141;BME280;54941;52.220;104.306;2022-10-16T02:46:41;98134.28;;;7.63;52.44
68141;BME280;54941;52.220;104.306;2022-10-16T02:49:09;98130.94;;;7.80;51.35
68141;BME280;54941;52.220;104.306;2022-10-16T02:51:35;98130.22;;;7.88;51.31
68141;BME280;54941;52.220;104.306;2022-10-16T02:54:02;98133.94;;;8.99;48.99
68141;BME280;54941;52.220;104.306;2022-10-16T02:56:28;98129.22;;;8.69;47.89
68141;BME280;54941;52.220;104.306;2022-10-16T02:58:55;98119.22;;;8.84;47.63
68141;BME280;54941;52.220;104.306;2022-10-16T03:01:21;98121.91;;;8.56;48.70
68141;BME280;54941;52.220;104.306;2022-10-16T03:03:48;98118.59;;;8.46;49.19
68141;BME280;54941;52.220;104.306;2022-10-16T03:06:16;98120.16;;;9.34;46.58
68141;BME280;54941;52.220;104.306;2022-10-16T03:08:42;98118.25;;;9.78;45.26
68141;BME280;54941;52.220;104.306;2022-10-16T03:11:09;98110.56;;;9.44;45.19
68141;BME280;54941;52.220;104.306;2022-10-16T03:13:35;98124.06;;;9.46;45.77
68141;BME280;54941;52.220;104.306;2022-10-16T03:16:01;98105.63;;;9.59;46.27
68141;BME280;54941;52.220;104.306;2022-10-16T03:18:28;98114.06;;;10.59;42.11
68141;BME280;54941;52.220;104.306;2022-10-16T03:20:54;98106.63;;;10.32;42.92
68141;BME280;54941;52.220;104.306;2022-10-16T03:23:22;98103.47;;;9.96;43.52
68141;BME280;54941;52.220;104.306;2022-10-16T03:25:49;98110.56;;;10.02;43.39
68141;BME280;54941;52.220;104.306;2022-10-16T03:28:15;98101.53;;;9.82;42.72
68141;BME280;54941;52.220;104.306;2022-10-16T03:30:42;98106.28;;;10.35;40.74
68141;BME280;54941;52.220;104.306;2022-10-16T03:33:09;98092.22;;;10.13;42.00
68141;BME280;54941;52.220;104.306;2022-10-16T03:35:35;98100.97;;;10.29;39.64
68141;BME280;54941;52.220;104.306;2022-10-16T03:38:02;98095.91;;;9.95;40.54
68141;BME280;54941;52.220;104.306;2022-10-16T03:40:30;98091.09;;;9.50;41.21
68141;BME280;54941;52.220;104.306;2022-10-16T03:42:57;98094.53;;;10.81;38.51
68141;BME280;54941;52.220;104.306;2022-10-16T03:45:23;98081.63;;;9.50;40.64
68141;BME280;54941;52.220;104.306;2022-10-16T03:47:50;98080.94;;;9.90;38.66
68141;BME280;54941;52.220;104.306;2022-10-16T03:50:16;98074.44;;;9.28;40.43
68141;BME280;54941;52.220;104.306;2022-10-16T03:52:42;98078.19;;;9.34;40.77
68141;BME280;54941;52.220;104.306;2022-10-16T03:55:09;98074.16;;;8.46;42.46
68141;BME280;54941;52.220;104.306;2022-10-16T03:57:37;98072.09;;;9.43;40.94
68141;BME280;54941;52.220;104.306;2022-10-16T04:00:04;98068.25;;;9.05;41.11
68141;BME280;54941;52.220;104.306;2022-10-16T04:02:30;98061.25;;;9.23;41.47
68141;BME280;54941;52.220;104.306;2022-10-16T04:04:57;98059.81;;;8.95;41.54
68141;BME280;54941;52.220;104.306;2022-10-16T04:07:23;98063.56;;;6.96;45.58
68141;BME280;54941;52.220;104.306;2022-10-16T04:09:50;98052.63;;;7.76;45.41
68141;BME280;54941;52.220;104.306;2022-10-16T04:12:16;98049.97;;;6.76;48.58
68141;BME280;54941;52.220;104.306;2022-10-16T04:14:44;98040.81;;;6.08;49.79
68141;BME280;54941;52.220;104.306;2022-10-16T04:17:11;98052.38;;;6.31;48.81
68141;BME280;54941;52.220;104.306;2022-10-16T04:19:37;98040.22;;;6.53;49.00
68141;BME280;54941;52.220;104.306;2022-10-16T04:22:03;98040.50;;;6.50;49.38
68141;BME280;54941;52.220;104.306;2022-10-16T04:24:30;98036.88;;;6.33;49.23
68141;BME280;54941;52.220;104.306;2022-10-16T04:26:56;98033.09;;;5.99;50.74
68141;BME280;54941;52.220;104.306;2022-10-16T04:29:23;98032.03;;;6.30;49.84
68141;BME280;54941;52.220;104.306;2022-10-16T04:31:51;98022.41;;;5.55;52.18
68141;BME280;54941;52.220;104.306;2022-10-16T04:34:17;98025.72;;;6.15;51.41
68141;BME280;54941;52.220;104.306;2022-10-16T04:36:44;98016.00;;;5.80;51.94
68141;BME280;54941;52.220;104.306;2022-10-16T04:39:12;98016.91;;;6.36;52.07
68141;BME280;54941;52.220;104.306;2022-10-16T04:41:39;98002.53;;;7.09;49.18
68141;BME280;54941;52.220;104.306;2022-10-16T04:44:05;98003.50;;;7.53;48.03
68141;BME280;54941;52.220;104.306;2022-10-16T04:46:32;98002.53;;;5.87;51.88
68141;BME280;54941;52.220;104.306;2022-10-16T04:49:00;97990.28;;;6.76;50.54
68141;BME280;54941;52.220;104.306;2022-10-16T04:51:26;97988.94;;;7.26;49.88
68141;BME280;54941;52.220;104.306;2022-10-16T04:53:53;97991.81;;;7.76;47.84
68141;BME280;54941;52.220;104.306;2022-10-16T04:56:19;97991.34;;;7.28;48.15
68141;BME280;54941;52.220;104.306;2022-10-16T04:58:46;97982.94;;;6.54;50.35
68141;BME280;54941;52.220;104.306;2022-10-16T05:01:12;97986.78;;;6.67;50.40
68141;BME280;54941;52.220;104.306;2022-10-16T05:03:40;97967.53;;;5.98;52.09
68141;BME280;54941;52.220;104.306;2022-10-16T05:06:08;97968.84;;;5.34;53.72
68141;BME280;54941;52.220;104.306;2022-10-16T05:08:34;97968.59;;;5.57;53.53
68141;BME280;54941;52.220;104.306;2022-10-16T05:11:01;97959.59;;;5.72;52.92
68141;BME280;54941;52.220;104.306;2022-10-16T05:13:27;97955.63;;;6.35;51.28
68141;BME280;54941;52.220;104.306;2022-10-16T05:15:54;97956.84;;;6.31;51.24
68141;BME280;54941;52.220;104.306;2022-10-16T05:18:21;97951.47;;;6.15;51.59
68141;BME280;54941;52.220;104.306;2022-10-16T05:20:49;97946.63;;;5.73;51.83
68141;BME280;54941;52.220;104.306;2022-10-16T05:23:17;97941.53;;;5.64;52.42
68141;BME280;54941;52.220;104.306;2022-10-16T05:25:52;97944.19;;;6.10;51.84
68141;BME280;54941;52.220;104.306;2022-10-16T05:28:19;97934.97;;;5.90;52.29
68141;BME280;54941;52.220;104.306;2022-10-16T05:30:45;97937.38;;;5.72;52.36
68141;BME280;54941;52.220;104.306;2022-10-16T05:33:12;97927.88;;;6.21;51.65
68141;BME280;54941;52.220;104.306;2022-10-16T05:35:38;97928.97;;;6.28;51.19
68141;BME280;54941;52.220;104.306;2022-10-16T05:38:05;97926.81;;;6.14;51.27
68141;BME280;54941;52.220;104.306;2022-10-16T05:40:32;97928.03;;;6.10;51.80
68141;BME280;54941;52.220;104.306;2022-10-16T05:42:59;97926.06;;;5.94;51.99
68141;BME280;54941;52.220;104.306;2022-10-16T05:45:26;97916.88;;;6.01;51.43
68141;BME280;54941;52.220;104.306;2022-10-16T05:47:52;97916.38;;;5.59;52.50
68141;BME280;54941;52.220;104.306;2022-10-16T05:50:19;97914.22;;;5.64;52.31
68141;BME280;54941;52.220;104.306;2022-10-16T05:52:45;97910.00;;;5.73;52.55
68141;BME280;54941;52.220;104.306;2022-10-16T05:55:12;97907.31;;;5.84;51.63
68141;BME280;54941;52.220;104.306;2022-10-16T05:57:39;97903.00;;;6.04;51.02
68141;BME280;54941;52.220;104.306;2022-10-16T06:00:07;97897.78;;;5.76;51.35
68141;BME280;54941;52.220;104.306;2022-10-16T06:02:34;97897.63;;;5.78;51.84
68141;BME280;54941;52.220;104.306;2022-10-16T06:05:00;97896.41;;;5.82;51.63
68141;BME280;54941;52.220;104.306;2022-10-16T06:07:27;97886.34;;;5.90;51.48
68141;BME280;54941;52.220;104.306;2022-10-16T06:09:53;97874.16;;;6.11;51.22
68141;BME280;54941;52.220;104.306;2022-10-16T06:12:20;97878.00;;;6.25;50.75
68141;BME280;54941;52.220;104.306;2022-10-16T06:14:48;97867.19;;;6.04;50.70
68141;BME280;54941;52.220;104.306;2022-10-16T06:17:15;97862.41;;;6.18;50.41
68141;BME280;54941;52.220;104.306;2022-10-16T06:19:41;97866.47;;;6.11;49.81
68141;BME280;54941;52.220;104.306;2022-10-16T06:22:08;97856.75;;;6.24;49.17
68141;BME280;54941;52.220;104.306;2022-10-16T06:24:34;97860.78;;;6.17;49.62
68141;BME280;54941;52.220;104.306;2022-10-16T06:27:01;97850.66;;;6.25;49.19
68141;BME280;54941;52.220;104.306;2022-10-16T06:29:27;97847.09;;;6.36;48.23
68141;BME280;54941;52.220;104.306;2022-10-16T06:31:55;97840.22;;;6.46;47.82
68141;BME280;54941;52.220;104.306;2022-10-16T06:34:21;97835.22;;;6.45;47.58
68141;BME280;54941;52.220;104.306;2022-10-16T06:36:48;97837.56;;;6.28;46.99
68141;BME280;54941;52.220;104.306;2022-10-16T06:39:14;97831.16;;;6.15;47.64
68141;BME280;54941;52.220;104.306;2022-10-16T06:41:41;97833.41;;;6.27;46.80
68141;BME280;54941;52.220;104.306;2022-10-16T06:44:07;97824.94;;;6.17;46.79
68141;BME280;54941;52.220;104.306;2022-10-16T06:46:34;97823.53;;;6.32;45.91
68141;BME280;54941;52.220;104.306;2022-10-16T06:49:02;97816.84;;;6.31;45.99
68141;BME280;54941;52.220;104.306;2022-10-16T06:51:28;97818.47;;;6.23;45.98
68141;BME280;54941;52.220;104.306;2022-10-16T06:53:55;97807.66;;;6.29;45.58
68141;BME280;54941;52.220;104.306;2022-10-16T06:56:23;97804.97;;;6.30;45.24
68141;BME280;54941;52.220;104.306;2022-10-16T06:58:51;97812.03;;;6.46;45.24
68141;BME280;54941;52.220;104.306;2022-10-16T07:01:19;97801.72;;;6.56;44.59
68141;BME280;54941;52.220;104.306;2022-10-16T07:03:46;97799.25;;;6.36;45.46
68141;BME280;54941;52.220;104.306;2022-10-16T07:06:16;97804.88;;;6.50;44.78
68141;BME280;54941;52.220;104.306;2022-10-16T07:08:43;97796.56;;;6.38;45.48
68141;BME280;54941;52.220;104.306;2022-10-16T07:11:12;97795.38;;;6.32;44.99
68141;BME280;54941;52.220;104.306;2022-10-16T07:13:40;97786.25;;;6.48;45.11
68141;BME280;54941;52.220;104.306;2022-10-16T07:16:08;97786.06;;;6.59;44.46
68141;BME280;54941;52.220;104.306;2022-10-16T07:18:35;97788.00;;;6.47;43.93
68141;BME280;54941;52.220;104.306;2022-10-16T07:21:06;97782.88;;;6.29;43.85
68141;BME280;54941;52.220;104.306;2022-10-16T07:23:34;97770.44;;;6.34;43.08
68141;BME280;54941;52.220;104.306;2022-10-16T07:26:01;97776.31;;;6.45;42.88
68141;BME280;54941;52.220;104.306;2022-10-16T07:28:28;97771.91;;;6.37;42.81
68141;BME280;54941;52.220;104.306;2022-10-16T07:30:55;97768.53;;;6.36;43.12
68141;BME280;54941;52.220;104.306;2022-10-16T07:33:26;97766.88;;;6.45;43.23
68141;BME280;54941;52.220;104.306;2022-10-16T07:35:53;97763.09;;;6.49;42.10
68141;BME280;54941;52.220;104.306;2022-10-16T07:38:21;97765.44;;;6.60;41.35
68141;BME280;54941;52.220;104.306;2022-10-16T07:40:56;97765.25;;;6.44;40.83
68141;BME280;54941;52.220;104.306;2022-10-16T07:43:22;97759.34;;;6.44;41.46
68141;BME280;54941;52.220;104.306;2022-10-16T07:45:50;97759.06;;;6.47;40.79
68141;BME280;54941;52.220;104.306;2022-10-16T07:48:17;97759.13;;;6.55;40.75
68141;BME280;54941;52.220;104.306;2022-10-16T07:50:44;97755.84;;;6.62;40.42
68141;BME280;54941;52.220;104.306;2022-10-16T07:53:11;97749.03;;;6.71;40.16
68141;BME280;54941;52.220;104.306;2022-10-16T07:55:37;97750.28;;;6.67;40.45
68141;BME280;54941;52.220;104.306;2022-10-16T07:58:06;97747.72;;;6.67;39.77
68141;BME280;54941;52.220;104.306;2022-10-16T08:00:33;97737.09;;;6.62;40.18
68141;BME280;54941;52.220;104.306;2022-10-16T08:02:59;97746.81;;;6.58;40.12
68141;BME280;54941;52.220;104.306;2022-10-16T08:05:26;97743.84;;;6.63;40.52
68141;BME280;54941;52.220;104.306;2022-10-16T08:07:53;97739.16;;;6.58;40.08
68141;BME280;54941;52.220;104.306;2022-10-16T08:10:20;97738.63;;;6.55;39.63
68141;BME280;54941;52.220;104.306;2022-10-16T08:12:47;97737.47;;;6.49;39.09
68141;BME280;54941;52.220;104.306;2022-10-16T08:15:15;97731.25;;;6.52;39.27
68141;BME280;54941;52.220;104.306;2022-10-16T08:17:42;97740.53;;;6.53;39.92
68141;BME280;54941;52.220;104.306;2022-10-16T08:20:09;97733.06;;;6.42;39.66
68141;BME280;54941;52.220;104.306;2022-10-16T08:22:37;97725.78;;;6.47;40.51
68141;BME280;54941;52.220;104.306;2022-10-16T08:25:03;97729.56;;;6.43;40.07
68141;BME280;54941;52.220;104.306;2022-10-16T08:27:31;97727.06;;;6.51;39.84
68141;BME280;54941;52.220;104.306;2022-10-16T08:29:57;97721.16;;;6.50;39.97
68141;BME280;54941;52.220;104.306;2022-10-16T08:32:25;97730.66;;;6.40;39.31
68141;BME280;54941;52.220;104.306;2022-10-16T08:34:52;97718.34;;;6.44;40.04
68141;BME280;54941;52.220;104.306;2022-10-16T08:37:18;97719.38;;;6.51;39.78
68141;BME280;54941;52.220;104.306;2022-10-16T08:39:45;97717.03;;;6.40;40.02
68141;BME280;54941;52.220;104.306;2022-10-16T08:42:29;97711.91;;;6.40;39.67
68141;BME280;54941;52.220;104.306;2022-10-16T08:45:21;97720.06;;;6.35;39.82
68141;BME280;54941;52.220;104.306;2022-10-16T08:48:02;97715.38;;;6.48;40.12
68141;BME280;54941;52.220;104.306;2022-10-16T08:50:35;97710.84;;;6.42;40.38
68141;BME280;54941;52.220;104.306;2022-10-16T08:53:04;97724.19;;;6.36;38.96
68141;BME280;54941;52.220;104.306;2022-10-16T08:55:34;97706.56;;;6.33;39.52
68141;BME280;54941;52.220;104.306;2022-10-16T08:58:11;97703.88;;;6.52;39.25
68141;BME280;54941;52.220;104.306;2022-10-16T09:00:38;97708.34;;;6.68;38.89
68141;BME280;54941;52.220;104.306;2022-10-16T09:03:13;97711.44;;;6.54;38.70
68141;BME280;54941;52.220;104.306;2022-10-16T09:05:52;97704.53;;;6.36;38.87
68141;BME280;54941;52.220;104.306;2022-10-16T09:08:28;97695.97;;;6.28;39.75
68141;BME280;54941;52.220;104.306;2022-10-16T09:10:59;97704.09;;;6.23;39.87
68141;BME280;54941;52.220;104.306;2022-10-16T09:13:34;97704.81;;;6.16;39.88
68141;BME280;54941;52.220;104.306;2022-10-16T09:16:14;97699.97;;;6.13;40.22
68141;BME280;54941;52.220;104.306;2022-10-16T09:18:50;97694.03;;;5.95;40.69
68141;BME280;54941;52.220;104.306;2022-10-16T09:21:21;97694.16;;;5.93;40.83
68141;BME280;54941;52.220;104.306;2022-10-16T09:23:50;97688.91;;;5.95;41.01
68141;BME280;54941;52.220;104.306;2022-10-16T09:26:18;97693.63;;;5.90;41.73
68141;BME280;54941;52.220;104.306;2022-10-16T09:28:44;97691.13;;;5.80;42.06
68141;BME280;54941;52.220;104.306;2022-10-16T09:31:18;97684.66;;;5.76;41.77
68141;BME280;54941;52.220;104.306;2022-10-16T09:33:49;97683.09;;;5.65;42.27
68141;BME280;54941;52.220;104.306;2022-10-16T09:36:18;97689.34;;;5.53;43.18
68141;BME280;54941;52.220;104.306;2022-10-16T09:38:45;97679.81;;;5.46;43.08
68141;BME280;54941;52.220;104.306;2022-10-16T09:41:17;97687.25;;;5.39;43.62
68141;BME280;54941;52.220;104.306;2022-10-16T09:43:50;97684.28;;;5.34;43.71
68141;BME280;54941;52.220;104.306;2022-10-16T09:46:29;97683.78;;;5.21;44.36
68141;BME280;54941;52.220;104.306;2022-10-16T09:48:59;97676.13;;;5.11;44.36
68141;BME280;54941;52.220;104.306;2022-10-16T09:51:27;97688.53;;;5.06;44.51
68141;BME280;54941;52.220;104.306;2022-10-16T09:53:57;97680.34;;;4.93;44.85
68141;BME280;54941;52.220;104.306;2022-10-16T09:56:24;97682.25;;;4.81;45.53
68141;BME280;54941;52.220;104.306;2022-10-16T09:58:52;97682.91;;;4.74;45.87
68141;BME280;54941;52.220;104.306;2022-10-16T10:01:19;97674.59;;;4.72;46.19
68141;BME280;54941;52.220;104.306;2022-10-16T10:03:47;97676.59;;;4.59;46.56
68141;BME280;54941;52.220;104.306;2022-10-16T10:06:22;97674.06;;;4.49;47.25
68141;BME280;54941;52.220;104.306;2022-10-16T10:08:57;97666.69;;;4.46;47.54
68141;BME280;54941;52.220;104.306;2022-10-16T10:11:51;97666.28;;;4.41;48.45
68141;BME280;54941;52.220;104.306;2022-10-16T10:14:21;97670.56;;;4.31;48.86
68141;BME280;54941;52.220;104.306;2022-10-16T10:16:49;97665.44;;;4.21;49.84
68141;BME280;54941;52.220;104.306;2022-10-16T10:19:17;97665.88;;;4.17;50.78
68141;BME280;54941;52.220;104.306;2022-10-16T10:21:45;97661.94;;;4.03;50.65
68141;BME280;54941;52.220;104.306;2022-10-16T10:24:13;97665.69;;;3.99;51.67
68141;BME280;54941;52.220;104.306;2022-10-16T10:26:46;97660.72;;;3.88;52.48
68141;BME280;54941;52.220;104.306;2022-10-16T10:29:17;97659.75;;;3.79;52.59
68141;BME280;54941;52.220;104.306;2022-10-16T10:31:54;97656.25;;;3.71;53.23
68141;BME280;54941;52.220;104.306;2022-10-16T10:34:35;97660.13;;;3.65;53.93
68141;BME280;54941;52.220;104.306;2022-10-16T10:37:14;97659.81;;;3.59;54.01
68141;BME280;54941;52.220;104.306;2022-10-16T10:39:54;97662.22;;;3.51;54.85
68141;BME280;54941;52.220;104.306;2022-10-16T10:42:29;97664.22;;;3.47;55.08
68141;BME280;54941;52.220;104.306;2022-10-16T10:45:14;97647.22;;;3.27;55.67
68141;BME280;54941;52.220;104.306;2022-10-16T10:47:48;97648.66;;;3.10;55.81
68141;BME280;54941;52.220;104.306;2022-10-16T10:50:23;97643.78;;;2.77;56.10
68141;BME280;54941;52.220;104.306;2022-10-16T10:53:02;97644.25;;;1.86;57.45
68141;BME280;54941;52.220;104.306;2022-10-16T10:55:39;97635.78;;;1.43;58.83
68141;BME280;54941;52.220;104.306;2022-10-16T10:58:32;97642.09;;;0.93;60.44
68141;BME280;54941;52.220;104.306;2022-10-16T11:01:05;97637.13;;;0.69;61.86
68141;BME280;54941;52.220;104.306;2022-10-16T11:03:53;97645.66;;;0.44;62.32
68141;BME280;54941;52.220;104.306;2022-10-16T11:06:26;97644.72;;;0.34;62.96
68141;BME280;54941;52.220;104.306;2022-10-16T11:09:00;97643.06;;;0.22;63.17
68141;BME280;54941;52.220;104.306;2022-10-16T11:11:32;97637.25;;;0.09;64.41
68141;BME280;54941;52.220;104.306;2022-10-16T11:14:04;97643.22;;;0.08;64.79
68141;BME280;54941;52.220;104.306;2022-10-16T11:16:37;97639.72;;;-0.02;65.99
68141;BME280;54941;52.220;104.306;2022-10-16T11:19:11;97630.84;;;-0.08;66.25
68141;BME280;54941;52.220;104.306;2022-10-16T11:21:46;97631.47;;;-0.17;65.90
68141;BME280;54941;52.220;104.306;2022-10-16T11:24:20;97635.47;;;-0.25;67.32
68141;BME280;54941;52.220;104.306;2022-10-16T11:26:50;97630.84;;;-0.08;68.47
68141;BME280;54941;52.220;104.306;2022-10-16T11:29:23;97624.69;;;0.08;69.19
68141;BME280;54941;52.220;104.306;2022-10-16T11:31:54;97617.63;;;0.70;67.39
68141;BME280;54941;52.220;104.306;2022-10-16T11:34:28;97619.94;;;0.84;67.00
68141;BME280;54941;52.220;104.306;2022-10-16T11:36:58;97617.66;;;1.14;66.25
68141;BME280;54941;52.220;104.306;2022-10-16T11:39:30;97626.03;;;1.59;65.74
68141;BME280;54941;52.220;104.306;2022-10-16T11:42:01;97619.13;;;1.61;65.03
68141;BME280;54941;52.220;104.306;2022-10-16T11:44:40;97622.50;;;1.28;65.07
68141;BME280;54941;52.220;104.306;2022-10-16T11:50:01;97615.22;;;1.35;65.31
68141;BME280;54941;52.220;104.306;2022-10-16T11:52:33;97612.94;;;1.10;65.50
68141;BME280;54941;52.220;104.306;2022-10-16T11:55:09;97619.16;;;1.28;65.79
68141;BME280;54941;52.220;104.306;2022-10-16T11:57:43;97623.50;;;0.81;67.08
68141;BME280;54941;52.220;104.306;2022-10-16T12:00:20;97618.28;;;0.61;67.24
68141;BME280;54941;52.220;104.306;2022-10-16T12:02:54;97619.78;;;-0.07;67.86
68141;BME280;54941;52.220;104.306;2022-10-16T12:05:33;97620.47;;;-0.52;69.21
68141;BME280;54941;52.220;104.306;2022-10-16T12:08:08;97616.38;;;-0.78;70.32
68141;BME280;54941;52.220;104.306;2022-10-16T12:10:38;97613.16;;;-0.93;71.59
68141;BME280;54941;52.220;104.306;2022-10-16T12:13:25;97610.72;;;-0.94;72.00
68141;BME280;54941;52.220;104.306;2022-10-16T12:15:51;97603.44;;;-0.99;72.59
68141;BME280;54941;52.220;104.306;2022-10-16T12:18:22;97604.66;;;-1.05;72.86
68141;BME280;54941;52.220;104.306;2022-10-16T12:20:55;97600.28;;;-0.90;72.79
68141;BME280;54941;52.220;104.306;2022-10-16T12:23:22;97601.91;;;-0.89;73.15
68141;BME280;54941;52.220;104.306;2022-10-16T12:25:56;97592.50;;;-1.00;73.11
68141;BME280;54941;52.220;104.306;2022-10-16T12:28:27;97590.28;;;-1.17;73.77
68141;BME280;54941;52.220;104.306;2022-10-16T12:30:56;97590.28;;;-1.42;74.39
68141;BME280;54941;52.220;104.306;2022-10-16T12:33:25;97592.50;;;-1.50;75.52
68141;BME280;54941;52.220;104.306;2022-10-16T12:35:55;97589.16;;;-1.51;76.03
68141;BME280;54941;52.220;104.306;2022-10-16T12:38:27;97584.28;;;-0.90;73.15
68141;BME280;54941;52.220;104.306;2022-10-16T12:41:01;97585.50;;;-0.96;73.26
68141;BME280;54941;52.220;104.306;2022-10-16T12:43:35;97591.81;;;-1.02;72.75
68141;BME280;54941;52.220;104.306;2022-10-16T12:46:04;97591.28;;;-0.81;71.40
68141;BME280;54941;52.220;104.306;2022-10-16T12:48:31;97592.34;;;-0.60;70.39
68141;BME280;54941;52.220;104.306;2022-10-16T12:51:10;97587.75;;;-1.04;72.26
68141;BME280;54941;52.220;104.306;2022-10-16T12:53:37;97584.38;;;-0.92;71.60
68141;BME280;54941;52.220;104.306;2022-10-16T12:56:13;97592.34;;;-0.60;69.59
68141;BME280;54941;52.220;104.306;2022-10-16T12:59:01;97580.97;;;-0.55;70.31
68141;BME280;54941;52.220;104.306;2022-10-16T13:01:42;97583.28;;;-0.88;71.13
68141;BME280;54941;52.220;104.306;2022-10-16T13:04:51;97579.38;;;-1.05;71.42